createdAt,value
2018-05-15T00:00:23.831Z,0.00
2018-05-15T00:01:23.834Z,0.00
2018-05-15T00:02:23.850Z,0.00
2018-05-15T00:03:23.988Z,0.00
2018-05-15T00:04:24.011Z,0.00
2018-05-15T00:05:23.913Z,0.00
2018-05-15T00:06:23.943Z,0.00
2018-05-15T00:07:23.959Z,0.00
2018-05-15T00:08:24.090Z,0.00
2018-05-15T00:09:24.005Z,0.00
2018-05-15T00:10:24.012Z,0.00
2018-05-15T00:11:24.039Z,0.00
2018-05-15T00:12:24.055Z,0.00
2018-05-15T00:13:24.075Z,0.00
2018-05-15T00:14:24.106Z,0.00
2018-05-15T00:15:24.118Z,0.00
2018-05-15T00:16:24.256Z,0.00
2018-05-15T00:17:24.157Z,0.00
2018-05-15T00:18:24.222Z,0.00
2018-05-15T00:19:24.267Z,0.00
2018-05-15T00:20:24.208Z,0.00
2018-05-15T00:21:24.226Z,0.00
2018-05-15T00:22:24.302Z,0.00
2018-05-15T00:23:24.281Z,0.00
2018-05-15T00:24:24.291Z,0.00
2018-05-15T00:25:24.314Z,0.00
2018-05-15T00:26:24.333Z,0.00
2018-05-15T00:27:24.395Z,0.00
2018-05-15T00:28:24.386Z,0.00
2018-05-15T00:29:24.449Z,0.00
2018-05-15T00:30:24.409Z,0.00
2018-05-15T00:31:24.435Z,0.00
2018-05-15T00:32:24.453Z,0.00
2018-05-15T00:33:24.461Z,0.00
2018-05-15T00:34:24.489Z,0.00
2018-05-15T00:35:24.615Z,0.00
2018-05-15T00:36:24.530Z,0.00
2018-05-15T00:37:24.541Z,0.00
2018-05-15T00:38:24.612Z,0.00
2018-05-15T00:39:24.579Z,0.00
2018-05-15T00:40:24.600Z,0.00
2018-05-15T00:41:24.619Z,0.00
2018-05-15T00:42:24.638Z,0.00
2018-05-15T00:43:24.656Z,0.00
2018-05-15T00:44:24.740Z,0.00
2018-05-15T00:45:24.704Z,0.00
2018-05-15T00:46:24.715Z,0.00
2018-05-15T00:47:24.836Z,0.00
2018-05-15T00:48:24.856Z,0.00
2018-05-15T00:49:24.795Z,0.00
2018-05-15T00:50:24.791Z,0.00
2018-05-15T00:51:24.820Z,0.00
2018-05-15T00:52:24.832Z,0.00
2018-05-15T00:53:24.960Z,0.00
2018-05-15T00:54:24.892Z,0.00
2018-05-15T00:55:24.916Z,0.00
2018-05-15T00:56:24.910Z,0.00
2018-05-15T00:57:24.927Z,0.00
2018-05-15T00:58:24.946Z,0.00
2018-05-15T00:59:24.969Z,0.00
2018-05-15T01:00:24.984Z,0.00
2018-05-15T02:40:40.780Z,0.00
2018-05-15T02:41:40.793Z,0.00
2018-05-15T02:42:40.782Z,0.00
2018-05-15T02:43:40.798Z,0.00
2018-05-15T02:44:40.842Z,0.00
2018-05-15T02:45:40.851Z,0.00
2018-05-15T02:46:40.993Z,0.00
2018-05-15T02:47:40.874Z,0.00
2018-05-15T02:48:40.891Z,0.00
2018-05-15T02:49:40.922Z,0.00
2018-05-15T02:50:40.936Z,0.00
2018-05-15T02:51:40.950Z,0.00
2018-05-15T02:52:40.977Z,0.00
2018-05-15T02:53:40.997Z,0.00
2018-05-15T02:54:41.009Z,0.00
2018-05-15T02:55:41.036Z,0.00
2018-05-15T02:56:41.060Z,0.00
2018-05-15T02:57:41.084Z,0.00
2018-05-15T02:58:41.092Z,0.00
2018-05-15T02:59:41.106Z,0.00
2018-05-15T03:00:41.123Z,0.00
2018-05-15T03:01:41.167Z,0.00
2018-05-15T03:02:41.171Z,0.00
2018-05-15T03:03:41.187Z,0.00
2018-05-15T03:04:41.202Z,0.00
2018-05-15T03:05:41.214Z,0.00
2018-05-15T03:06:41.232Z,0.00
2018-05-15T03:07:41.270Z,0.00
2018-05-15T03:08:41.268Z,0.00
2018-05-15T03:09:41.299Z,0.00
2018-05-15T03:10:41.343Z,0.00
2018-05-15T03:11:41.350Z,0.00
2018-05-15T03:12:41.375Z,0.00
2018-05-15T03:13:41.375Z,0.00
2018-05-15T03:14:41.405Z,0.00
2018-05-15T03:15:41.406Z,0.00
2018-05-15T03:16:41.421Z,5.63
2018-05-15T03:17:41.449Z,5.63
2018-05-15T03:18:41.479Z,5.63
2018-05-15T03:19:41.476Z,5.63
2018-05-15T03:20:41.495Z,5.63
2018-05-15T03:21:41.525Z,5.63
2018-05-15T03:22:41.548Z,5.63
2018-05-15T03:23:41.556Z,5.63
2018-05-15T03:24:41.593Z,11.25
2018-05-15T03:25:41.591Z,11.25
2018-05-15T03:26:41.608Z,11.25
2018-05-15T03:27:41.645Z,11.25
2018-05-15T03:28:41.652Z,11.25
2018-05-15T03:29:41.667Z,16.88
2018-05-15T03:30:41.700Z,16.88
2018-05-15T03:31:41.720Z,16.88
2018-05-15T03:32:41.722Z,16.88
2018-05-15T03:33:41.762Z,22.50
2018-05-15T03:34:41.759Z,22.50
2018-05-15T03:35:41.777Z,22.50
2018-05-15T03:36:41.803Z,22.50
2018-05-15T03:37:41.811Z,28.13
2018-05-15T03:38:41.826Z,28.13
2018-05-15T03:39:41.868Z,28.13
2018-05-15T03:40:41.870Z,28.13
2018-05-15T03:41:41.890Z,33.75
2018-05-15T03:42:41.905Z,33.75
2018-05-15T03:43:41.931Z,33.75
2018-05-15T03:44:41.944Z,39.38
2018-05-15T03:45:41.959Z,39.38
2018-05-15T03:46:42.008Z,45.00
2018-05-15T03:47:42.008Z,45.00
2018-05-15T03:48:42.027Z,45.00
2018-05-15T03:49:42.053Z,50.63
2018-05-15T03:50:42.084Z,50.63
2018-05-15T03:51:42.080Z,50.63
2018-05-15T03:52:42.094Z,50.63
2018-05-15T03:53:42.111Z,56.25
2018-05-15T03:54:42.135Z,56.25
2018-05-15T03:55:42.165Z,56.25
2018-05-15T03:56:42.170Z,56.25
2018-05-15T03:57:42.191Z,56.25
2018-05-15T03:58:42.299Z,56.25
2018-05-15T03:59:42.223Z,56.25
2018-05-15T04:00:42.312Z,61.88
2018-05-15T04:01:42.262Z,61.88
2018-05-15T04:02:42.313Z,61.88
2018-05-15T04:03:42.309Z,61.88
2018-05-15T04:04:42.317Z,67.50
2018-05-15T04:05:42.335Z,67.50
2018-05-15T04:06:42.352Z,67.50
2018-05-15T04:07:42.374Z,73.13
2018-05-15T04:08:42.457Z,73.13
2018-05-15T04:09:42.408Z,73.13
2018-05-15T04:10:42.484Z,78.75
2018-05-15T04:11:42.450Z,78.75
2018-05-15T04:12:42.463Z,78.75
2018-05-15T04:13:42.491Z,84.38
2018-05-15T04:14:42.517Z,84.38
2018-05-15T04:15:42.525Z,90.00
2018-05-15T04:16:42.557Z,90.00
2018-05-15T04:17:42.572Z,95.63
2018-05-15T04:18:42.592Z,95.63
2018-05-15T04:19:42.596Z,101.25
2018-05-15T04:20:42.614Z,106.88
2018-05-15T04:21:42.637Z,112.50
2018-05-15T04:22:42.648Z,112.50
2018-05-15T04:23:42.679Z,118.13
2018-05-15T04:24:42.696Z,123.75
2018-05-15T04:25:42.710Z,135.00
2018-05-15T04:26:42.750Z,146.25
2018-05-15T04:27:42.748Z,151.88
2018-05-15T04:28:42.775Z,163.13
2018-05-15T04:29:42.790Z,168.75
2018-05-15T04:30:42.830Z,180.00
2018-05-15T04:31:42.837Z,191.25
2018-05-15T04:32:42.877Z,202.50
2018-05-15T04:33:42.861Z,213.75
2018-05-15T04:34:42.884Z,219.38
2018-05-15T04:35:42.905Z,230.63
2018-05-15T04:36:42.919Z,236.25
2018-05-15T04:37:42.957Z,236.25
2018-05-15T04:38:42.957Z,247.50
2018-05-15T04:39:43.006Z,253.13
2018-05-15T04:40:42.995Z,264.38
2018-05-15T04:41:43.014Z,275.63
2018-05-15T04:42:43.033Z,292.50
2018-05-15T04:43:43.146Z,303.75
2018-05-15T04:44:43.074Z,315.00
2018-05-15T04:45:43.088Z,331.88
2018-05-15T04:46:43.134Z,348.75
2018-05-15T04:47:43.145Z,365.63
2018-05-15T04:48:43.150Z,382.50
2018-05-15T04:49:43.172Z,478.13
2018-05-15T04:50:43.188Z,950.63
2018-05-15T04:51:43.215Z,1198.13
2018-05-15T04:52:43.222Z,1237.50
2018-05-15T04:53:43.254Z,1260.00
2018-05-15T04:54:43.270Z,1288.13
2018-05-15T04:55:43.316Z,1316.25
2018-05-15T04:56:43.310Z,1321.88
2018-05-15T04:57:43.343Z,1327.50
2018-05-15T04:58:43.386Z,1344.38
2018-05-15T04:59:43.374Z,1389.38
2018-05-15T05:00:43.424Z,1423.13
2018-05-15T05:01:43.419Z,1417.50
2018-05-15T05:02:43.458Z,1434.38
2018-05-15T05:03:43.481Z,1485.00
2018-05-15T05:04:43.491Z,1496.25
2018-05-15T05:05:43.519Z,1462.50
2018-05-15T05:06:43.540Z,1468.13
2018-05-15T05:07:43.570Z,1462.50
2018-05-15T05:08:43.590Z,1485.00
2018-05-15T05:09:43.624Z,1558.13
2018-05-15T05:10:43.637Z,1569.38
2018-05-15T05:11:43.686Z,1591.88
2018-05-15T05:12:43.687Z,1608.75
2018-05-15T05:13:43.726Z,1580.63
2018-05-15T05:14:43.740Z,1563.75
2018-05-15T05:15:43.764Z,1535.63
2018-05-15T05:16:43.785Z,1569.38
2018-05-15T05:17:43.810Z,1625.63
2018-05-15T05:18:43.841Z,1591.88
2018-05-15T05:19:43.880Z,1591.88
2018-05-15T05:20:43.913Z,1597.50
2018-05-15T05:21:43.926Z,1586.25
2018-05-15T05:22:43.944Z,1631.25
2018-05-15T05:23:43.993Z,1665.00
2018-05-15T05:24:43.994Z,1670.63
2018-05-15T05:25:44.047Z,1653.75
2018-05-15T05:26:44.050Z,1648.13
2018-05-15T05:27:44.085Z,1670.63
2018-05-15T05:28:44.115Z,1693.13
2018-05-15T05:29:44.156Z,1715.63
2018-05-15T05:30:44.161Z,1710.00
2018-05-15T05:31:44.207Z,1732.50
2018-05-15T05:32:44.259Z,1726.88
2018-05-15T05:33:44.283Z,1704.38
2018-05-15T05:34:44.267Z,1771.88
2018-05-15T05:35:44.305Z,1833.75
2018-05-15T05:36:44.351Z,1811.25
2018-05-15T05:37:44.352Z,1794.38
2018-05-15T05:38:44.378Z,1766.25
2018-05-15T05:39:44.412Z,1766.25
2018-05-15T05:40:44.444Z,1788.75
2018-05-15T05:41:44.465Z,1771.88
2018-05-15T05:42:44.493Z,1822.50
2018-05-15T05:43:44.517Z,1794.38
2018-05-15T05:44:44.548Z,1771.88
2018-05-15T05:45:44.591Z,1800.00
2018-05-15T05:46:44.602Z,1788.75
2018-05-15T05:47:44.622Z,1800.00
2018-05-15T05:48:44.654Z,1811.25
2018-05-15T05:49:44.688Z,1698.75
2018-05-15T05:50:44.708Z,1350.00
2018-05-15T05:51:44.735Z,1445.63
2018-05-15T05:52:44.764Z,1659.38
2018-05-15T05:53:44.806Z,1822.50
2018-05-15T05:54:44.819Z,1845.00
2018-05-15T05:55:44.837Z,1895.63
2018-05-15T05:56:44.907Z,1867.50
2018-05-15T05:57:44.911Z,1906.88
2018-05-15T05:58:44.940Z,1963.13
2018-05-15T05:59:44.949Z,1951.88
2018-05-15T06:00:44.990Z,1935.00
2018-05-15T06:01:45.054Z,1929.38
2018-05-15T06:02:45.050Z,1906.88
2018-05-15T06:03:45.058Z,1985.63
2018-05-15T06:04:45.150Z,2036.25
2018-05-15T06:05:45.126Z,1946.25
2018-05-15T06:06:45.141Z,1828.13
2018-05-15T06:07:45.181Z,1828.13
2018-05-15T06:08:45.217Z,1957.50
2018-05-15T06:09:45.236Z,1951.88
2018-05-15T06:10:45.260Z,1918.13
2018-05-15T06:11:45.294Z,1985.63
2018-05-15T06:12:45.318Z,2047.50
2018-05-15T06:13:45.344Z,2013.75
2018-05-15T06:14:45.386Z,2064.38
2018-05-15T06:15:45.403Z,2193.75
2018-05-15T06:16:45.427Z,2115.00
2018-05-15T06:17:45.462Z,2131.88
2018-05-15T06:18:45.495Z,2058.75
2018-05-15T06:19:45.514Z,1991.25
2018-05-15T06:20:45.593Z,1968.75
2018-05-15T06:21:45.571Z,1884.38
2018-05-15T06:22:45.616Z,1884.38
2018-05-15T06:23:45.664Z,1980.00
2018-05-15T06:24:45.661Z,2047.50
2018-05-15T06:25:45.692Z,2098.13
2018-05-15T06:26:45.722Z,2081.25
2018-05-15T06:27:45.747Z,2064.38
2018-05-15T06:28:45.780Z,2131.88
2018-05-15T06:29:45.815Z,2086.88
2018-05-15T06:30:45.831Z,2075.63
2018-05-15T06:31:45.882Z,2115.00
2018-05-15T06:32:45.897Z,2205.00
2018-05-15T06:33:45.918Z,2250.00
2018-05-15T06:34:45.946Z,2244.38
2018-05-15T06:35:45.978Z,2182.50
2018-05-15T06:36:46.003Z,2210.63
2018-05-15T06:37:46.029Z,2210.63
2018-05-15T06:38:46.054Z,2081.25
2018-05-15T06:39:46.106Z,1968.75
2018-05-15T06:40:46.130Z,1940.63
2018-05-15T06:41:46.149Z,2120.63
2018-05-15T06:42:46.178Z,2182.50
2018-05-15T06:43:46.202Z,2227.50
2018-05-15T06:44:46.277Z,2328.75
2018-05-15T06:45:46.273Z,2340.00
2018-05-15T06:46:46.300Z,2317.50
2018-05-15T06:47:46.326Z,2311.88
2018-05-15T06:48:46.347Z,2362.50
2018-05-15T06:49:46.368Z,2379.38
2018-05-15T06:50:46.412Z,2356.88
2018-05-15T06:51:46.432Z,2261.25
2018-05-15T06:52:46.457Z,2250.00
2018-05-15T06:53:46.493Z,2407.50
2018-05-15T06:54:46.520Z,2520.00
2018-05-15T06:55:46.551Z,2373.75
2018-05-15T06:56:46.577Z,2311.88
2018-05-15T06:57:46.606Z,2508.75
2018-05-15T06:58:46.640Z,2750.63
2018-05-15T06:59:46.665Z,2548.13
2018-05-15T07:00:46.730Z,2328.75
2018-05-15T07:01:46.741Z,2317.50
2018-05-15T07:02:46.758Z,2317.50
2018-05-15T07:03:46.790Z,2345.63
2018-05-15T07:04:46.801Z,2525.63
2018-05-15T07:05:46.840Z,2503.13
2018-05-15T07:06:46.866Z,2491.88
2018-05-15T07:07:46.936Z,2497.50
2018-05-15T07:08:46.922Z,2525.63
2018-05-15T07:09:46.957Z,2525.63
2018-05-15T07:10:46.986Z,2452.50
2018-05-15T07:11:47.007Z,2520.00
2018-05-15T07:12:47.058Z,2683.13
2018-05-15T07:13:47.069Z,2643.75
2018-05-15T07:14:47.084Z,2711.25
2018-05-15T07:15:47.120Z,2750.63
2018-05-15T07:16:47.148Z,2171.25
2018-05-15T07:17:47.173Z,2193.75
2018-05-15T07:18:47.196Z,2171.25
2018-05-15T07:19:47.239Z,2255.63
2018-05-15T07:20:47.259Z,2317.50
2018-05-15T07:21:47.293Z,2362.50
2018-05-15T07:22:47.318Z,2700.00
2018-05-15T07:23:47.363Z,2666.25
2018-05-15T07:24:47.380Z,2536.88
2018-05-15T07:25:47.394Z,2486.25
2018-05-15T07:26:47.421Z,2531.25
2018-05-15T07:27:47.449Z,2525.63
2018-05-15T07:28:47.512Z,2587.50
2018-05-15T07:29:47.534Z,2581.88
2018-05-15T07:30:47.541Z,2570.63
2018-05-15T07:31:47.563Z,2520.00
2018-05-15T07:32:47.627Z,2446.88
2018-05-15T07:33:47.634Z,2418.75
2018-05-15T07:34:47.654Z,2385.00
2018-05-15T07:35:47.675Z,2238.75
2018-05-15T07:36:47.714Z,2379.38
2018-05-15T07:37:47.745Z,2491.88
2018-05-15T07:38:47.772Z,2475.00
2018-05-15T07:39:47.790Z,2418.75
2018-05-15T07:40:47.837Z,2446.88
2018-05-15T07:41:47.929Z,2480.63
2018-05-15T07:42:47.879Z,2413.13
2018-05-15T07:43:47.905Z,2390.63
2018-05-15T07:44:47.936Z,1985.63
2018-05-15T07:45:47.962Z,1980.00
2018-05-15T07:46:47.995Z,1929.38
2018-05-15T07:47:48.015Z,2244.38
2018-05-15T07:48:48.053Z,2396.25
2018-05-15T07:49:48.079Z,2356.88
2018-05-15T07:50:48.111Z,2345.63
2018-05-15T07:51:48.143Z,2368.13
2018-05-15T07:52:48.164Z,2205.00
2018-05-15T07:53:48.197Z,2171.25
2018-05-15T07:54:48.220Z,2154.38
2018-05-15T07:55:48.254Z,2182.50
2018-05-15T07:56:48.270Z,2311.88
2018-05-15T07:57:48.312Z,2272.50
2018-05-15T07:58:48.337Z,2244.38
2018-05-15T07:59:48.351Z,2295.00
2018-05-15T08:00:48.387Z,2424.38
2018-05-15T08:01:48.418Z,2250.00
2018-05-15T08:02:48.471Z,2086.88
2018-05-15T08:03:48.469Z,2379.38
2018-05-15T08:04:48.498Z,2351.25
2018-05-15T08:05:48.538Z,2334.38
2018-05-15T08:06:48.559Z,2362.50
2018-05-15T08:07:48.625Z,2435.63
2018-05-15T08:08:48.609Z,2362.50
2018-05-15T08:09:48.637Z,2373.75
2018-05-15T08:10:48.657Z,2334.38
2018-05-15T08:11:48.692Z,2210.63
2018-05-15T08:12:48.715Z,2261.25
2018-05-15T08:13:48.795Z,2205.00
2018-05-15T08:14:48.776Z,2210.63
2018-05-15T08:15:48.801Z,2362.50
2018-05-15T08:16:48.825Z,2221.88
2018-05-15T08:17:48.855Z,2115.00
2018-05-15T08:18:48.879Z,2216.25
2018-05-15T08:19:48.911Z,2092.50
2018-05-15T08:20:48.951Z,2086.88
2018-05-15T08:21:48.968Z,1940.63
2018-05-15T08:22:48.993Z,1721.25
2018-05-15T08:23:49.022Z,1833.75
2018-05-15T08:24:49.056Z,1912.50
2018-05-15T08:25:49.071Z,1974.38
2018-05-15T08:26:49.101Z,1918.13
2018-05-15T08:27:49.131Z,1631.25
2018-05-15T08:28:49.150Z,900.00
2018-05-15T08:29:49.179Z,596.25
2018-05-15T08:30:49.259Z,585.00
2018-05-15T08:31:49.242Z,556.88
2018-05-15T08:32:49.261Z,545.63
2018-05-15T08:33:49.279Z,545.63
2018-05-15T08:34:49.316Z,540.00
2018-05-15T08:35:49.327Z,534.38
2018-05-15T08:36:49.353Z,534.38
2018-05-15T08:37:49.404Z,528.75
2018-05-15T08:38:49.404Z,528.75
2018-05-15T08:39:49.432Z,528.75
2018-05-15T08:40:49.456Z,528.75
2018-05-15T08:41:49.477Z,528.75
2018-05-15T08:42:49.510Z,523.13
2018-05-15T08:43:49.531Z,517.50
2018-05-15T08:44:49.561Z,523.13
2018-05-15T08:45:49.576Z,517.50
2018-05-15T08:46:49.597Z,517.50
2018-05-15T08:47:49.636Z,523.13
2018-05-15T08:48:49.661Z,523.13
2018-05-15T08:49:49.683Z,523.13
2018-05-15T08:50:49.699Z,517.50
2018-05-15T08:51:49.724Z,517.50
2018-05-15T08:52:49.754Z,517.50
2018-05-15T08:53:49.773Z,517.50
2018-05-15T08:54:49.823Z,511.88
2018-05-15T08:55:49.816Z,511.88
2018-05-15T08:56:49.842Z,511.88
2018-05-15T08:57:49.870Z,506.25
2018-05-15T08:58:49.920Z,506.25
2018-05-15T08:59:49.914Z,506.25
2018-05-15T09:00:49.944Z,500.63
2018-05-15T09:01:49.970Z,495.00
2018-05-15T09:02:49.998Z,495.00
2018-05-15T09:03:50.012Z,495.00
2018-05-15T09:04:50.031Z,495.00
2018-05-15T09:05:50.064Z,489.38
2018-05-15T09:06:50.097Z,489.38
2018-05-15T09:07:50.109Z,489.38
2018-05-15T09:08:50.131Z,489.38
2018-05-15T09:09:50.159Z,489.38
2018-05-15T09:10:50.176Z,489.38
2018-05-15T09:11:50.206Z,489.38
2018-05-15T09:12:50.226Z,495.00
2018-05-15T09:13:50.253Z,495.00
2018-05-15T09:14:50.281Z,495.00
2018-05-15T09:15:50.294Z,495.00
2018-05-15T09:16:50.353Z,500.63
2018-05-15T09:17:50.341Z,495.00
2018-05-15T09:18:50.448Z,500.63
2018-05-15T09:19:50.398Z,495.00
2018-05-15T09:20:50.421Z,495.00
2018-05-15T09:21:50.457Z,495.00
2018-05-15T09:22:50.465Z,495.00
2018-05-15T09:23:50.489Z,500.63
2018-05-15T09:24:50.531Z,500.63
2018-05-15T09:25:50.548Z,500.63
2018-05-15T09:26:50.564Z,500.63
2018-05-15T09:27:50.610Z,506.25
2018-05-15T09:28:50.617Z,506.25
2018-05-15T09:29:50.656Z,500.63
2018-05-15T09:30:50.703Z,500.63
2018-05-15T09:31:50.685Z,506.25
2018-05-15T09:32:50.705Z,517.50
2018-05-15T09:33:50.732Z,517.50
2018-05-15T09:34:50.759Z,523.13
2018-05-15T09:35:50.773Z,534.38
2018-05-15T09:36:50.803Z,517.50
2018-05-15T09:37:50.830Z,523.13
2018-05-15T09:38:50.852Z,528.75
2018-05-15T09:39:50.879Z,511.88
2018-05-15T09:40:50.926Z,489.38
2018-05-15T09:41:50.945Z,483.75
2018-05-15T09:42:50.959Z,478.13
2018-05-15T09:43:50.972Z,483.75
2018-05-15T09:44:50.993Z,478.13
2018-05-15T09:45:51.021Z,478.13
2018-05-15T09:46:51.052Z,495.00
2018-05-15T09:47:51.064Z,489.38
2018-05-15T09:48:51.090Z,489.38
2018-05-15T09:49:51.108Z,489.38
2018-05-15T09:50:51.141Z,489.38
2018-05-15T09:51:51.168Z,489.38
2018-05-15T09:52:51.208Z,495.00
2018-05-15T09:53:51.211Z,495.00
2018-05-15T09:54:51.239Z,495.00
2018-05-15T09:55:51.254Z,489.38
2018-05-15T09:56:51.281Z,483.75
2018-05-15T09:57:51.303Z,483.75
2018-05-15T09:58:51.332Z,478.13
2018-05-15T09:59:51.349Z,466.88
2018-05-15T10:00:51.388Z,466.88
2018-05-15T10:01:51.423Z,472.50
2018-05-15T10:02:51.434Z,478.13
2018-05-15T10:03:51.447Z,472.50
2018-05-15T10:04:51.481Z,444.38
2018-05-15T10:05:51.500Z,489.38
2018-05-15T10:06:51.525Z,489.38
2018-05-15T10:07:51.605Z,489.38
2018-05-15T10:08:51.574Z,489.38
2018-05-15T10:09:51.599Z,483.75
2018-05-15T10:10:51.634Z,489.38
2018-05-15T10:11:51.641Z,489.38
2018-05-15T10:12:51.675Z,489.38
2018-05-15T10:13:51.682Z,483.75
2018-05-15T10:14:51.706Z,472.50
2018-05-15T10:15:51.740Z,478.13
2018-05-15T10:16:51.762Z,472.50
2018-05-15T10:17:51.782Z,466.88
2018-05-15T10:18:51.808Z,410.63
2018-05-15T10:19:51.834Z,405.00
2018-05-15T10:20:51.857Z,455.63
2018-05-15T10:21:51.877Z,450.00
2018-05-15T10:22:51.914Z,444.38
2018-05-15T10:23:51.927Z,438.75
2018-05-15T10:24:51.950Z,450.00
2018-05-15T10:25:51.978Z,450.00
2018-05-15T10:26:51.995Z,450.00
2018-05-15T10:27:52.035Z,455.63
2018-05-15T10:28:52.072Z,450.00
2018-05-15T10:29:52.136Z,450.00
2018-05-15T10:30:52.119Z,450.00
2018-05-15T10:31:52.121Z,450.00
2018-05-15T10:32:52.141Z,455.63
2018-05-15T10:33:52.164Z,455.63
2018-05-15T10:34:52.196Z,450.00
2018-05-15T10:35:52.209Z,455.63
2018-05-15T10:36:52.237Z,455.63
2018-05-15T10:37:52.263Z,455.63
2018-05-15T10:38:52.281Z,427.50
2018-05-15T10:39:52.317Z,444.38
2018-05-15T10:40:52.359Z,444.38
2018-05-15T10:41:52.358Z,444.38
2018-05-15T10:42:52.372Z,455.63
2018-05-15T10:43:52.437Z,427.50
2018-05-15T10:44:52.423Z,450.00
2018-05-15T10:45:52.476Z,506.25
2018-05-15T10:46:52.485Z,511.88
2018-05-15T10:47:52.499Z,489.38
2018-05-15T10:48:52.537Z,478.13
2018-05-15T10:49:52.543Z,444.38
2018-05-15T10:50:52.672Z,427.50
2018-05-15T10:51:52.613Z,444.38
2018-05-15T10:52:52.612Z,444.38
2018-05-15T10:53:52.646Z,450.00
2018-05-15T10:54:52.669Z,461.25
2018-05-15T10:55:52.701Z,489.38
2018-05-15T10:56:52.711Z,506.25
2018-05-15T10:57:52.736Z,506.25
2018-05-15T10:58:52.757Z,506.25
2018-05-15T10:59:52.781Z,472.50
2018-05-15T11:00:52.819Z,461.25
2018-05-15T11:01:52.836Z,455.63
2018-05-15T11:02:52.859Z,450.00
2018-05-15T11:03:52.881Z,438.75
2018-05-15T11:04:52.907Z,444.38
2018-05-15T11:05:52.923Z,438.75
2018-05-15T11:06:52.954Z,433.13
2018-05-15T11:07:52.976Z,421.88
2018-05-15T11:08:52.994Z,421.88
2018-05-15T11:09:53.019Z,433.13
2018-05-15T11:10:53.044Z,455.63
2018-05-15T11:11:53.077Z,466.88
2018-05-15T11:12:53.175Z,450.00
2018-05-15T11:13:53.116Z,438.75
2018-05-15T11:14:53.149Z,427.50
2018-05-15T11:15:53.173Z,433.13
2018-05-15T11:16:53.190Z,427.50
2018-05-15T11:17:53.215Z,421.88
2018-05-15T11:18:53.242Z,427.50
2018-05-15T11:19:53.268Z,427.50
2018-05-15T11:20:53.295Z,427.50
2018-05-15T11:21:53.306Z,427.50
2018-05-15T11:22:53.369Z,433.13
2018-05-15T11:23:53.372Z,438.75
2018-05-15T11:24:53.389Z,450.00
2018-05-15T11:25:53.440Z,461.25
2018-05-15T11:26:53.439Z,472.50
2018-05-15T11:27:53.453Z,483.75
2018-05-15T11:28:53.494Z,495.00
2018-05-15T11:29:53.504Z,500.63
2018-05-15T11:30:53.526Z,500.63
2018-05-15T11:31:53.580Z,495.00
2018-05-15T11:32:53.581Z,489.38
2018-05-15T11:33:53.640Z,478.13
2018-05-15T11:34:53.634Z,461.25
2018-05-15T11:35:53.747Z,455.63
2018-05-15T11:36:53.685Z,461.25
2018-05-15T11:37:53.704Z,466.88
2018-05-15T11:38:53.714Z,461.25
2018-05-15T11:39:53.737Z,466.88
2018-05-15T11:40:53.775Z,461.25
2018-05-15T11:41:53.860Z,472.50
2018-05-15T11:42:53.814Z,489.38
2018-05-15T11:43:53.840Z,500.63
2018-05-15T11:44:53.865Z,500.63
2018-05-15T11:45:53.912Z,511.88
2018-05-15T11:46:53.902Z,523.13
2018-05-15T11:47:54.455Z,551.25
2018-05-15T11:48:54.489Z,579.38
2018-05-15T11:49:54.980Z,579.38
2018-05-15T11:50:54.223Z,573.75
2018-05-15T11:51:54.823Z,613.13
2018-05-15T11:52:54.667Z,624.38
2018-05-15T11:53:54.088Z,624.38
2018-05-15T11:54:54.107Z,630.00
2018-05-15T11:55:54.212Z,568.13
2018-05-15T11:56:54.156Z,601.88
2018-05-15T11:57:54.240Z,551.25
2018-05-15T11:58:54.211Z,545.63
2018-05-15T11:59:54.322Z,562.50
2018-05-15T12:00:54.253Z,562.50
2018-05-15T12:01:54.270Z,607.50
2018-05-15T12:02:54.305Z,601.88
2018-05-15T12:03:54.322Z,562.50
2018-05-15T12:04:54.345Z,511.88
2018-05-15T12:05:54.382Z,517.50
2018-05-15T12:06:54.392Z,523.13
2018-05-15T12:07:54.421Z,450.00
2018-05-15T12:08:54.469Z,433.13
2018-05-15T12:09:54.483Z,388.13
2018-05-15T12:10:54.488Z,376.88
2018-05-15T12:11:54.525Z,382.50
2018-05-15T12:12:54.583Z,393.75
2018-05-15T12:13:54.569Z,399.38
2018-05-15T12:14:54.590Z,410.63
2018-05-15T12:15:54.619Z,410.63
2018-05-15T12:16:54.668Z,399.38
2018-05-15T12:17:54.663Z,399.38
2018-05-15T12:18:54.688Z,433.13
2018-05-15T12:19:54.711Z,466.88
2018-05-15T12:20:54.766Z,455.63
2018-05-15T12:21:54.782Z,450.00
2018-05-15T12:22:54.797Z,444.38
2018-05-15T12:23:54.833Z,444.38
2018-05-15T12:24:54.840Z,438.75
2018-05-15T12:25:54.855Z,444.38
2018-05-15T12:26:54.918Z,438.75
2018-05-15T12:27:54.945Z,444.38
2018-05-15T12:28:54.976Z,450.00
2018-05-15T12:29:55.003Z,466.88
2018-05-15T12:30:55.004Z,483.75
2018-05-15T12:31:55.011Z,506.25
2018-05-15T12:32:55.031Z,528.75
2018-05-15T12:33:55.333Z,545.63
2018-05-15T12:34:55.092Z,523.13
2018-05-15T12:35:55.185Z,528.75
2018-05-15T12:36:55.135Z,528.75
2018-05-15T12:37:55.154Z,523.13
2018-05-15T12:38:55.193Z,511.88
2018-05-15T12:39:55.260Z,500.63
2018-05-15T12:40:55.217Z,500.63
2018-05-15T12:41:55.497Z,511.88
2018-05-15T12:42:55.287Z,517.50
2018-05-15T12:43:55.292Z,528.75
2018-05-15T12:44:55.308Z,528.75
2018-05-15T12:45:55.347Z,523.13
2018-05-15T12:46:55.366Z,511.88
2018-05-15T12:47:55.475Z,500.63
2018-05-15T12:48:55.425Z,483.75
2018-05-15T12:49:55.431Z,472.50
2018-05-15T12:50:55.459Z,472.50
2018-05-15T12:51:55.495Z,483.75
2018-05-15T12:52:55.507Z,517.50
2018-05-15T12:53:55.561Z,517.50
2018-05-15T12:54:55.563Z,540.00
2018-05-15T12:55:55.577Z,556.88
2018-05-15T12:56:55.605Z,585.00
2018-05-15T12:57:55.634Z,590.63
2018-05-15T12:58:55.655Z,601.88
2018-05-15T12:59:55.677Z,624.38
2018-05-15T13:00:55.702Z,641.25
2018-05-15T13:01:55.721Z,635.63
2018-05-15T13:02:55.748Z,630.00
2018-05-15T13:03:55.809Z,624.38
2018-05-15T13:04:55.788Z,613.13
2018-05-15T13:05:55.813Z,618.75
2018-05-15T13:06:55.857Z,613.13
2018-05-15T13:07:55.874Z,613.13
2018-05-15T13:08:55.894Z,590.63
2018-05-15T13:09:55.913Z,596.25
2018-05-15T13:10:55.953Z,590.63
2018-05-15T13:11:55.972Z,579.38
2018-05-15T13:12:55.998Z,579.38
2018-05-15T13:13:56.024Z,562.50
2018-05-15T13:14:56.042Z,556.88
2018-05-15T13:15:56.083Z,540.00
2018-05-15T13:16:56.098Z,511.88
2018-05-15T13:17:56.107Z,495.00
2018-05-15T13:18:56.148Z,478.13
2018-05-15T13:19:56.160Z,461.25
2018-05-15T13:20:56.188Z,455.63
2018-05-15T13:21:56.204Z,461.25
2018-05-15T13:22:56.230Z,472.50
2018-05-15T13:23:56.284Z,478.13
2018-05-15T13:24:56.306Z,489.38
2018-05-15T13:25:56.309Z,500.63
2018-05-15T13:26:56.323Z,540.00
2018-05-15T13:27:56.378Z,562.50
2018-05-15T13:28:56.393Z,568.13
2018-05-15T13:29:56.510Z,573.75
2018-05-15T13:30:56.437Z,579.38
2018-05-15T13:31:56.461Z,573.75
2018-05-15T13:32:56.480Z,562.50
2018-05-15T13:33:56.496Z,573.75
2018-05-15T13:34:56.535Z,573.75
2018-05-15T13:35:56.543Z,528.75
2018-05-15T13:36:56.583Z,500.63
2018-05-15T13:37:56.591Z,483.75
2018-05-15T13:38:56.628Z,478.13
2018-05-15T13:39:56.663Z,500.63
2018-05-15T13:40:56.681Z,500.63
2018-05-15T13:41:56.700Z,472.50
2018-05-15T13:42:56.720Z,472.50
2018-05-15T13:43:56.746Z,483.75
2018-05-15T13:44:56.767Z,511.88
2018-05-15T13:45:56.835Z,528.75
2018-05-15T13:46:56.811Z,568.13
2018-05-15T13:47:56.836Z,568.13
2018-05-15T13:48:56.873Z,545.63
2018-05-15T13:49:56.894Z,545.63
2018-05-15T13:50:56.916Z,545.63
2018-05-15T13:51:56.946Z,551.25
2018-05-15T13:52:56.979Z,585.00
2018-05-15T13:53:56.986Z,585.00
2018-05-15T13:54:57.011Z,590.63
2018-05-15T13:55:57.037Z,573.75
2018-05-15T13:56:57.059Z,562.50
2018-05-15T13:57:57.113Z,556.88
2018-05-15T13:58:57.105Z,545.63
2018-05-15T13:59:57.137Z,540.00
2018-05-15T14:00:57.156Z,523.13
2018-05-15T14:01:57.190Z,500.63
2018-05-15T14:02:57.212Z,500.63
2018-05-15T14:03:57.238Z,466.88
2018-05-15T14:04:57.257Z,433.13
2018-05-15T14:05:57.281Z,427.50
2018-05-15T14:06:57.313Z,410.63
2018-05-15T14:07:57.329Z,405.00
2018-05-15T14:08:57.351Z,405.00
2018-05-15T14:09:57.402Z,405.00